KCKV/CKV METAR and TAF weather

Enter ICAO airport designator
Station Type Date Time Source
KCKV METAR 2019/04/25 21:52 UTC NOAA

KCKV 252152Z AUTO 21013G24KT 10SM CLR 21/12 A2968 RMK AO2 SLP046 T02110117


Station Type Date Time Source
KCKV Decoded METAR 2019/04/25 21:52 UTC NOAA

CLARKSVILLE OUTLAW FIELD, TN, United States (KCKV) 36-37N 87-25W 165M
Apr 25, 2019 - 05:52 PM EDT / 2019.04.25 2152 UTC
Wind: from the SSW (210 degrees) at 15 MPH (13 KT) gusting to 28 MPH (24 KT):0
Visibility: 10 mile(s):0
Sky conditions: clear
Temperature: 70.0 F (21.1 C)
Dew Point: 53.1 F (11.7 C)
Relative Humidity: 54%
Pressure (altimeter): 29.68 in. Hg (1005 hPa)
ob: KCKV 252152Z AUTO 21013G24KT 10SM CLR 21/12 A2968 RMK AO2 SLP046 T02110117
cycle: 22

Station Type Date Time Source
KCKV TAF 2019/04/25 20:18 UTC NOAA

TAF
AMD KCKV 252016Z 2520/2618 21009KT P6SM VCSH FEW035 BKN050 OVC090
FM252300 19012G22KT 4SM -TSRA OVC040CB
FM260400 23012KT 5SM -SHRA OVC025
FM260700 31015G25KT P6SM OVC025
FM261200 31016G26KT P6SM SCT030

Example: see airport list